CUR weather

Hato International Airport
Willemstad, Curaçao

Public forecast

Using degrees Celsius for public forecast. Weather courtesy of forecast.io.

Current aviation weather report (METAR) for Hato International Airport

Retrieved 2019/12/06 17:00 UTC (50 minutes ago):

TNCC 061700Z 10013KT 9999 SCT023 31/23 Q1013 NOSIG

Aviation forecast (TAF) for Hato International Airport

Retrieved 2019/12/06 12:24 UTC (5 hours ago):

TAF TNCC 061115Z 0612/0712 10014KT 9999 FEW020 PROB30 TEMPO 0708/0712 8000 SHRA BKN015